Time;durP1;ratioP1;P1;durP2;ratioP2;P2;SDS_P1;SDS_P2;PMS_P1;PMS_P2;Temp;Humidity;BMP_temperature;BMP_pressure;BME280_temperature;BME280_humidity;BME280_pressure;Samples;Min_cycle;Max_cycle;Signal;HPM_P1;HPM_P2
2022/11/03 05:10:30;;;;;;;118.78;40.80;;;;;;;;;;5005923;23;20051;-61
2022/11/03 05:12:57;;;;;;;104.05;39.05;;;;;;;;;;4915772;29;20452;-61
2022/11/03 05:15:29;;;;;;;114.55;39.72;;;;;;;;;;4898061;29;20032;-61
2022/11/03 05:17:56;;;;;;;116.20;40.03;;;;;;;;;;4915848;29;20032;-64
2022/11/03 05:20:43;;;;;;;111.50;38.88;;;;;;;;;;4915929;29;20484;-61
2022/11/03 05:23:10;;;;;;;110.75;38.53;;;;;;;;;;4915103;29;20095;-63
2022/11/03 05:25:44;;;;;;;116.15;40.22;;;;;;;;;;4915713;29;20028;-62
2022/11/03 05:28:15;;;;;;;106.50;38.45;;;;;;;;;;4915325;29;20024;-61
2022/11/03 05:30:41;;;;;;;105.28;36.90;;;;;;;;;;4915614;29;20480;-62
2022/11/03 05:33:26;;;;;;;105.43;36.70;;;;;;;;;;4915510;29;20044;-61
2022/11/03 05:35:52;;;;;;;100.68;35.75;;;;;;;;;;4915300;29;20032;-62
2022/11/03 05:38:19;;;;;;;96.60;36.40;;;;;;;;;;4915241;29;20040;-63
2022/11/03 05:40:46;;;;;;;94.13;35.35;;;;;;;;;;4915497;29;20032;-66
2022/11/03 05:43:14;;;;;;;93.53;35.00;;;;;;;;;;4915536;29;20420;-64
2022/11/03 05:45:41;;;;;;;82.30;32.70;;;;;;;;;;4915631;29;20028;-64
2022/11/03 05:48:21;;;;;;;91.80;34.33;;;;;;;;;;4915095;29;20495;-64
2022/11/03 05:50:47;;;;;;;79.00;32.47;;;;;;;;;;4897604;29;20122;-65
2022/11/03 05:53:19;;;;;;;82.95;32.63;;;;;;;;;;4915091;29;20028;-64
2022/11/03 05:55:45;;;;;;;80.03;32.42;;;;;;;;;;4915346;29;20107;-65
2022/11/03 05:58:14;;;;;;;83.35;32.65;;;;;;;;;;4915363;29;20386;-62
2022/11/03 06:00:41;;;;;;;80.75;31.73;;;;;;;;;;4915276;29;20035;-65
2022/11/03 06:03:10;;;;;;;78.93;31.83;;;;;;;;;;4915183;29;20036;-64
2022/11/03 06:05:36;;;;;;;79.10;32.38;;;;;;;;;;4897467;29;20535;-65
2022/11/03 06:08:03;;;;;;;70.95;31.42;;;;;;;;;;4914610;29;20032;-62
2022/11/03 06:10:31;;;;;;;80.78;32.30;;;;;;;;;;4915054;29;20049;-62
2022/11/03 06:13:02;;;;;;;73.00;31.08;;;;;;;;;;4914732;29;20834;-63
2022/11/03 06:15:33;;;;;;;73.90;30.83;;;;;;;;;;4915014;29;20048;-62
2022/11/03 06:18:00;;;;;;;73.57;32.17;;;;;;;;;;4914700;29;20028;-62
2022/11/03 06:20:26;;;;;;;78.15;33.47;;;;;;;;;;4914935;29;20034;-68
2022/11/03 06:22:54;;;;;;;78.03;33.40;;;;;;;;;;4914887;29;20067;-66
2022/11/03 06:25:33;;;;;;;82.95;32.40;;;;;;;;;;4914896;29;20024;-62
2022/11/03 06:28:03;;;;;;;87.60;35.78;;;;;;;;;;4915024;29;20032;-66
2022/11/03 06:30:31;;;;;;;83.43;33.67;;;;;;;;;;4914835;29;20032;-64
2022/11/03 06:33:01;;;;;;;81.65;33.88;;;;;;;;;;4913922;29;20047;-64
2022/11/03 06:35:27;;;;;;;86.97;34.20;;;;;;;;;;4914710;29;20036;-62
2022/11/03 06:37:55;;;;;;;86.68;34.97;;;;;;;;;;4914743;29;20071;-65
2022/11/03 06:40:23;;;;;;;88.57;35.22;;;;;;;;;;4914583;29;20115;-63
2022/11/03 06:42:49;;;;;;;85.38;34.53;;;;;;;;;;4914470;29;20083;-67
2022/11/03 06:45:25;;;;;;;96.93;36.80;;;;;;;;;;4914208;29;20111;-63
2022/11/03 06:47:54;;;;;;;89.07;34.30;;;;;;;;;;4914369;29;20119;-63
2022/11/03 06:50:30;;;;;;;89.60;35.10;;;;;;;;;;4914172;29;20028;-65
2022/11/03 06:52:57;;;;;;;100.82;37.28;;;;;;;;;;4913561;29;20024;-63
2022/11/03 06:55:25;;;;;;;94.65;35.28;;;;;;;;;;4898924;29;20370;-62
2022/11/03 06:58:02;;;;;;;103.78;38.03;;;;;;;;;;4895004;29;20039;-63
2022/11/03 07:00:29;;;;;;;101.93;37.47;;;;;;;;;;4878367;29;20041;-63
2022/11/03 07:02:58;;;;;;;92.80;34.88;;;;;;;;;;4895589;29;20064;-68
2022/11/03 07:05:28;;;;;;;97.03;35.35;;;;;;;;;;4895579;29;20060;-61
2022/11/03 07:07:57;;;;;;;82.75;35.13;;;;;;;;;;4895348;29;20059;-63
2022/11/03 07:10:27;;;;;;;76.88;32.53;;;;;;;;;;4895408;29;20076;-61
2022/11/03 07:12:54;;;;;;;88.15;36.13;;;;;;;;;;4895070;29;20103;-61
2022/11/03 07:15:23;;;;;;;91.80;36.42;;;;;;;;;;4895145;29;20036;-61
2022/11/03 07:17:49;;;;;;;100.88;36.95;;;;;;;;;;4895640;29;20064;-62
2022/11/03 07:20:16;;;;;;;98.60;36.97;;;;;;;;;;4895238;29;20030;-64
2022/11/03 07:22:42;;;;;;;111.93;43.40;;;;;;;;;;4894885;29;20060;-63
2022/11/03 07:25:13;;;;;;;106.10;38.03;;;;;;;;;;4893312;29;20063;-61
2022/11/03 07:27:40;;;;;;;99.88;35.63;;;;;;;;;;4894274;29;20028;-61
2022/11/03 07:30:14;;;;;;;82.53;32.95;;;;;;;;;;4895130;29;20029;-62
2022/11/03 07:32:40;;;;;;;77.05;32.20;;;;;;;;;;4894247;29;20035;-65
2022/11/03 07:35:12;;;;;;;72.72;31.13;;;;;;;;;;4877171;29;20389;-62
2022/11/03 07:37:38;;;;;;;;;;;;;;;;;;4892495;29;20060;-62
2022/11/03 07:40:05;;;;;;;69.75;29.58;;;;;;;;;;4894372;29;19915;-66
2022/11/03 07:42:31;;;;;;;69.78;29.55;;;;;;;;;;4894547;29;20064;-65
2022/11/03 07:44:57;;;;;;;66.95;29.98;;;;;;;;;;4896157;29;20170;-65
2022/11/03 07:47:24;;;;;;;74.55;30.27;;;;;;;;;;4898564;29;20028;-63
2022/11/03 07:49:50;;;;;;;68.40;30.58;;;;;;;;;;4898868;29;20029;-69
2022/11/03 07:52:20;;;;;;;63.75;28.08;;;;;;;;;;4897618;29;20364;-64
2022/11/03 07:54:46;;;;;;;64.65;29.60;;;;;;;;;;4894188;29;20493;-62
2022/11/03 07:57:12;;;;;;;67.88;30.50;;;;;;;;;;4897917;29;20029;-63
2022/11/03 07:59:40;;;;;;;59.60;28.38;;;;;;;;;;4898044;29;20438;-63
2022/11/03 08:02:29;;;;;;;55.13;26.60;;;;;;;;;;4898181;29;20397;-67
2022/11/03 08:04:55;;;;;;;53.40;25.77;;;;;;;;;;4898903;29;20025;-64
2022/11/03 08:07:21;;;;;;;59.53;26.13;;;;;;;;;;4898646;29;20486;-70
2022/11/03 08:09:47;;;;;;;53.50;25.58;;;;;;;;;;4881371;29;20497;-65
2022/11/03 08:12:13;;;;;;;48.13;23.80;;;;;;;;;;4898891;29;20033;-70
2022/11/03 08:14:39;;;;;;;49.00;24.88;;;;;;;;;;4898592;29;20576;-63
2022/11/03 08:17:05;;;;;;;46.78;23.48;;;;;;;;;;4898924;29;20532;-69
2022/11/03 08:19:31;;;;;;;44.72;22.45;;;;;;;;;;4901035;29;20057;-70
2022/11/03 08:21:57;;;;;;;43.08;22.25;;;;;;;;;;4905446;29;20047;-74
2022/11/03 08:24:24;;;;;;;43.80;21.67;;;;;;;;;;4881669;29;20041;-67
2022/11/03 08:26:50;;;;;;;39.00;20.98;;;;;;;;;;4898384;29;20040;-67
2022/11/03 08:29:17;;;;;;;37.47;20.38;;;;;;;;;;4904547;29;20041;-71
2022/11/03 08:31:44;;;;;;;35.72;20.05;;;;;;;;;;4904970;29;20031;-64
2022/11/03 08:34:11;;;;;;;37.40;19.67;;;;;;;;;;4903885;29;20643;-62
2022/11/03 08:36:37;;;;;;;32.88;19.00;;;;;;;;;;4898889;29;20029;-62
2022/11/03 08:39:03;;;;;;;36.40;18.85;;;;;;;;;;4901961;29;20036;-70
2022/11/03 08:41:31;;;;;;;34.35;19.77;;;;;;;;;;4900762;29;20028;-68
2022/11/03 08:43:58;;;;;;;33.25;19.02;;;;;;;;;;4881515;29;20044;-69
2022/11/03 08:46:24;;;;;;;36.35;19.98;;;;;;;;;;4898272;29;20025;-63
2022/11/03 08:48:52;;;;;;;33.25;19.50;;;;;;;;;;4904121;29;20107;-66
2022/11/03 08:51:19;;;;;;;37.25;20.35;;;;;;;;;;4880418;29;20589;-69
2022/11/03 08:53:49;;;;;;;34.53;19.25;;;;;;;;;;4899186;29;20396;-66
2022/11/03 08:56:15;;;;;;;34.65;19.42;;;;;;;;;;4902782;29;20116;-68
2022/11/03 08:58:43;;;;;;;34.65;19.63;;;;;;;;;;4901317;29;20037;-82
2022/11/03 09:01:10;;;;;;;34.85;18.88;;;;;;;;;;4898155;29;20048;-65
2022/11/03 09:03:43;;;;;;;40.45;19.88;;;;;;;;;;4893434;29;20029;-70
2022/11/03 09:06:12;;;;;;;38.92;21.27;;;;;;;;;;4909549;29;20036;-68
2022/11/03 09:08:41;;;;;;;39.53;20.85;;;;;;;;;;4885693;29;20079;-63
2022/11/03 09:11:07;;;;;;;36.70;20.05;;;;;;;;;;4882085;29;20039;-66
2022/11/03 09:13:33;;;;;;;37.08;20.45;;;;;;;;;;4897766;29;20039;-69
2022/11/03 09:15:59;;;;;;;39.83;21.35;;;;;;;;;;4897823;29;20028;-62
2022/11/03 09:18:25;;;;;;;37.97;20.83;;;;;;;;;;4897640;29;20432;-64
2022/11/03 09:20:51;;;;;;;35.97;19.77;;;;;;;;;;4898965;29;20032;-67
2022/11/03 09:23:17;;;;;;;38.95;21.30;;;;;;;;;;4897222;29;20028;-62
2022/11/03 09:25:43;;;;;;;45.05;22.17;;;;;;;;;;4897429;29;20092;-66
2022/11/03 09:28:09;;;;;;;42.47;22.40;;;;;;;;;;4897669;29;20036;-70
2022/11/03 09:30:35;;;;;;;41.70;22.35;;;;;;;;;;4897653;29;20397;-63
2022/11/03 09:33:02;;;;;;;37.33;20.98;;;;;;;;;;4897383;29;20397;-67
2022/11/03 09:35:30;;;;;;;36.88;20.77;;;;;;;;;;4905247;29;20055;-65
2022/11/03 09:37:56;;;;;;;39.20;22.00;;;;;;;;;;4883341;29;20033;-62
2022/11/03 09:40:24;;;;;;;39.75;23.35;;;;;;;;;;4896932;29;20400;-65
2022/11/03 09:42:50;;;;;;;39.75;21.38;;;;;;;;;;4896637;29;20112;-62
2022/11/03 09:45:16;;;;;;;42.15;21.55;;;;;;;;;;4897296;29;20101;-61
2022/11/03 09:47:44;;;;;;;46.33;21.95;;;;;;;;;;4896880;29;20036;-63
2022/11/03 09:50:15;;;;;;;41.17;23.02;;;;;;;;;;4896578;29;20495;-61
2022/11/03 09:52:41;;;;;;;45.28;24.42;;;;;;;;;;4896785;29;20426;-62
2022/11/03 09:55:14;;;;;;;60.63;31.95;;;;;;;;;;4896636;29;20064;-62
2022/11/03 09:57:41;;;;;;;57.25;30.33;;;;;;;;;;4896783;29;20114;-61
2022/11/03 10:00:13;;;;;;;47.20;24.63;;;;;;;;;;4896859;29;20051;-63
2022/11/03 10:02:42;;;;;;;47.75;24.67;;;;;;;;;;4896875;29;20028;-69
2022/11/03 10:05:09;;;;;;;45.85;24.98;;;;;;;;;;4896714;29;20032;-62
2022/11/03 10:07:35;;;;;;;47.83;25.23;;;;;;;;;;4896275;29;20499;-63
2022/11/03 10:10:01;;;;;;;50.42;25.33;;;;;;;;;;4896187;29;20059;-61
2022/11/03 10:12:30;;;;;;;133.02;64.72;;;;;;;;;;4896753;29;20107;-61
2022/11/03 10:14:56;;;;;;;109.63;52.60;;;;;;;;;;4896510;29;20064;-64
2022/11/03 10:17:26;;;;;;;53.92;30.17;;;;;;;;;;4896223;29;20447;-68
2022/11/03 10:19:55;;;;;;;53.40;27.98;;;;;;;;;;4896434;29;20043;-63
2022/11/03 10:22:21;;;;;;;49.72;27.15;;;;;;;;;;4896132;29;20035;-61
2022/11/03 10:24:47;;;;;;;50.75;26.88;;;;;;;;;;4896548;29;20712;-70
2022/11/03 10:27:27;;;;;;;51.53;26.55;;;;;;;;;;4896533;29;20501;-69
2022/11/03 10:30:06;;;;;;;51.83;26.95;;;;;;;;;;4896038;29;20025;-63
2022/11/03 10:32:33;;;;;;;52.30;27.10;;;;;;;;;;4895986;29;20032;-65
2022/11/03 10:34:59;;;;;;;52.47;28.00;;;;;;;;;;4896087;29;20112;-63
2022/11/03 10:37:26;;;;;;;51.92;27.88;;;;;;;;;;4896388;29;20120;-69
2022/11/03 10:39:57;;;;;;;51.50;26.70;;;;;;;;;;4895964;29;20061;-64
2022/11/03 10:42:30;;;;;;;57.70;27.65;;;;;;;;;;4896211;29;20425;-63
2022/11/03 10:45:11;;;;;;;57.92;29.90;;;;;;;;;;4896105;29;20571;-69
2022/11/03 10:47:37;;;;;;;56.40;28.60;;;;;;;;;;4896048;29;20036;-63
2022/11/03 10:50:30;;;;;;;53.13;27.40;;;;;;;;;;4896277;29;20040;-62
2022/11/03 10:52:57;;;;;;;52.80;27.75;;;;;;;;;;4892458;29;20056;-66
2022/11/03 10:55:23;;;;;;;51.45;26.13;;;;;;;;;;4895854;29;20052;-64
2022/11/03 10:57:50;;;;;;;54.20;28.85;;;;;;;;;;4896026;29;20060;-64
2022/11/03 11:00:17;;;;;;;53.88;28.73;;;;;;;;;;4896163;29;20032;-68
2022/11/03 11:02:45;;;;;;;56.53;29.95;;;;;;;;;;4895927;29;20080;-61
2022/11/03 11:05:17;;;;;;;57.53;30.20;;;;;;;;;;4896007;29;20032;-66
2022/11/03 11:07:44;;;;;;;64.47;33.15;;;;;;;;;;4895852;29;20509;-65
2022/11/03 11:10:18;;;;;;;65.68;33.72;;;;;;;;;;4895708;29;20056;-68
2022/11/03 11:13:03;;;;;;;78.28;37.97;;;;;;;;;;4896151;29;20356;-64
2022/11/03 11:15:38;;;;;;;81.68;39.22;;;;;;;;;;4895957;29;20041;-67
2022/11/03 11:18:04;;;;;;;82.60;40.25;;;;;;;;;;4895651;29;20088;-62
2022/11/03 11:20:30;;;;;;;84.15;40.17;;;;;;;;;;4898409;29;20061;-62
2022/11/03 11:23:16;;;;;;;90.90;42.92;;;;;;;;;;4899860;29;20024;-63
2022/11/03 11:26:01;;;;;;;89.13;42.03;;;;;;;;;;4899346;29;20792;-63
2022/11/03 11:28:27;;;;;;;94.07;43.00;;;;;;;;;;4899716;29;20461;-62
2022/11/03 11:30:53;;;;;;;93.30;43.50;;;;;;;;;;4899820;29;20096;-63
2022/11/03 11:33:23;;;;;;;101.22;46.97;;;;;;;;;;4899216;29;20119;-61
2022/11/03 11:35:49;;;;;;;104.78;45.95;;;;;;;;;;4899557;29;20033;-62
2022/11/03 11:38:34;;;;;;;109.57;47.17;;;;;;;;;;4899334;29;20455;-62
2022/11/03 11:41:00;;;;;;;104.00;45.17;;;;;;;;;;4899197;29;20051;-62
2022/11/03 11:43:26;;;;;;;106.43;44.97;;;;;;;;;;4899390;29;20021;-63
2022/11/03 11:46:11;;;;;;;109.57;46.72;;;;;;;;;;4899135;29;20060;-62
2022/11/03 11:48:37;;;;;;;122.22;47.90;;;;;;;;;;4898425;29;20024;-61
2022/11/03 11:51:03;;;;;;;114.40;45.75;;;;;;;;;;4899468;29;20033;-62
2022/11/03 11:53:33;;;;;;;113.57;45.40;;;;;;;;;;4899023;29;20088;-61
2022/11/03 11:56:01;;;;;;;120.28;47.25;;;;;;;;;;4898042;29;20447;-62
2022/11/03 11:58:43;;;;;;;126.20;48.00;;;;;;;;;;4898793;29;20069;-67
2022/11/03 12:01:09;;;;;;;;;;;;;;;;;;4898894;29;20160;-60
2022/11/03 12:03:37;;;;;;;131.98;50.60;;;;;;;;;;4898500;29;20002;-65
2022/11/03 12:06:03;;;;;;;124.53;50.03;;;;;;;;;;4898709;29;20512;-60
2022/11/03 12:08:30;;;;;;;134.48;50.10;;;;;;;;;;4897937;29;20115;-62
2022/11/03 12:11:00;;;;;;;134.40;52.95;;;;;;;;;;4898203;29;20044;-61
2022/11/03 12:13:38;;;;;;;128.02;51.00;;;;;;;;;;4898212;29;20032;-60
2022/11/03 12:16:05;;;;;;;124.63;48.47;;;;;;;;;;4898614;29;20051;-61
2022/11/03 12:18:31;;;;;;;132.15;48.95;;;;;;;;;;4898467;29;20025;-62
2022/11/03 12:20:57;;;;;;;128.38;49.78;;;;;;;;;;4898414;29;20052;-66
2022/11/03 12:23:42;;;;;;;127.97;49.65;;;;;;;;;;4897811;29;20051;-71
2022/11/03 12:26:18;;;;;;;133.35;50.75;;;;;;;;;;4897850;29;20077;-63
2022/11/03 12:28:44;;;;;;;129.50;47.50;;;;;;;;;;4897759;29;20036;-63
2022/11/03 12:31:11;;;;;;;140.85;54.17;;;;;;;;;;4898160;29;20111;-69
2022/11/03 12:33:38;;;;;;;138.68;52.97;;;;;;;;;;4898526;29;20033;-63
2022/11/03 12:36:04;;;;;;;129.98;50.67;;;;;;;;;;4881296;29;20032;-67
2022/11/03 12:38:30;;;;;;;123.75;49.53;;;;;;;;;;4880613;29;20032;-64
2022/11/03 12:40:56;;;;;;;127.97;50.90;;;;;;;;;;4898261;29;20045;-65
2022/11/03 12:43:22;;;;;;;133.13;53.67;;;;;;;;;;4898335;29;20028;-68
2022/11/03 12:45:48;;;;;;;131.48;51.22;;;;;;;;;;4880867;29;20044;-62
2022/11/03 12:48:14;;;;;;;119.78;49.35;;;;;;;;;;4898175;29;20084;-63
2022/11/03 12:50:40;;;;;;;120.30;48.10;;;;;;;;;;4897396;29;20038;-62
2022/11/03 12:53:07;;;;;;;117.70;46.53;;;;;;;;;;4897829;29;20148;-61
2022/11/03 12:55:33;;;;;;;117.03;47.80;;;;;;;;;;4897504;29;20032;-67
2022/11/03 12:58:00;;;;;;;119.22;49.67;;;;;;;;;;4897520;29;20024;-62
2022/11/03 13:00:26;;;;;;;119.25;48.30;;;;;;;;;;4897456;29;20025;-63
2022/11/03 13:02:52;;;;;;;122.55;50.22;;;;;;;;;;4897487;29;20108;-66
2022/11/03 13:05:18;;;;;;;123.07;50.45;;;;;;;;;;4897306;29;20036;-69
2022/11/03 13:07:44;;;;;;;124.07;49.75;;;;;;;;;;4897324;29;20033;-64
2022/11/03 13:10:10;;;;;;;121.03;49.90;;;;;;;;;;4896856;29;20056;-62
2022/11/03 13:12:40;;;;;;;126.43;51.78;;;;;;;;;;4897188;29;20045;-62
2022/11/03 13:15:07;;;;;;;131.10;52.10;;;;;;;;;;4897244;29;20036;-63
2022/11/03 13:17:33;;;;;;;128.90;51.55;;;;;;;;;;4897391;29;20408;-67
2022/11/03 13:19:59;;;;;;;120.90;49.85;;;;;;;;;;4897399;29;20079;-69
2022/11/03 13:22:25;;;;;;;115.38;49.35;;;;;;;;;;4897162;29;20035;-68
2022/11/03 13:24:51;;;;;;;113.25;48.70;;;;;;;;;;4897473;29;20025;-66
2022/11/03 13:27:17;;;;;;;120.43;47.33;;;;;;;;;;4897071;29;20039;-64
2022/11/03 13:29:43;;;;;;;109.97;47.10;;;;;;;;;;4897463;29;20370;-64
2022/11/03 13:32:09;;;;;;;106.82;46.33;;;;;;;;;;4897186;29;20032;-68
2022/11/03 13:34:35;;;;;;;102.95;46.10;;;;;;;;;;4897210;29;20043;-68
2022/11/03 13:37:03;;;;;;;108.70;48.20;;;;;;;;;;4897115;29;20050;-66
2022/11/03 13:39:29;;;;;;;108.97;46.67;;;;;;;;;;4896988;29;20033;-66
2022/11/03 13:41:55;;;;;;;106.70;46.28;;;;;;;;;;4896650;29;20036;-61
2022/11/03 13:44:21;;;;;;;106.40;45.47;;;;;;;;;;4896999;29;20481;-62
2022/11/03 13:46:48;;;;;;;101.97;46.17;;;;;;;;;;4897185;29;20068;-62
2022/11/03 13:49:14;;;;;;;101.00;44.75;;;;;;;;;;4897104;29;20021;-61
2022/11/03 13:51:40;;;;;;;104.20;46.38;;;;;;;;;;4897093;29;20079;-62
2022/11/03 13:54:06;;;;;;;108.70;47.10;;;;;;;;;;4896827;29;20040;-70
2022/11/03 13:56:32;;;;;;;104.78;46.20;;;;;;;;;;4896641;29;20020;-62
2022/11/03 13:58:58;;;;;;;98.50;46.05;;;;;;;;;;4897092;29;20050;-63
2022/11/03 14:01:25;;;;;;;105.30;46.65;;;;;;;;;;4896793;29;20540;-63
2022/11/03 14:03:51;;;;;;;98.80;46.72;;;;;;;;;;4896992;29;20035;-62
2022/11/03 14:06:17;;;;;;;103.25;46.67;;;;;;;;;;4896700;29;20179;-61
2022/11/03 14:08:43;;;;;;;103.07;47.22;;;;;;;;;;4896071;29;20068;-63
2022/11/03 14:13:54;;;;;;;100.90;47.00;;;;;;;;;;4896508;29;20060;-67
2022/11/03 14:16:20;;;;;;;96.50;44.25;;;;;;;;;;4896368;29;20214;-66
2022/11/03 14:18:46;;;;;;;98.13;43.50;;;;;;;;;;4896259;29;20084;-61
2022/11/03 14:21:12;;;;;;;92.82;43.30;;;;;;;;;;4896114;29;20025;-61
2022/11/03 14:23:38;;;;;;;85.55;42.53;;;;;;;;;;4895642;29;20031;-61
2022/11/03 14:26:04;;;;;;;91.30;42.28;;;;;;;;;;4895979;29;20155;-66
2022/11/03 14:28:30;;;;;;;91.28;44.17;;;;;;;;;;4895748;29;20473;-63
2022/11/03 14:30:58;;;;;;;93.47;42.92;;;;;;;;;;4895887;29;20036;-65
2022/11/03 14:33:25;;;;;;;88.97;41.95;;;;;;;;;;4896092;29;20028;-63
2022/11/03 14:35:51;;;;;;;90.32;42.67;;;;;;;;;;4895955;29;20052;-65
2022/11/03 14:38:17;;;;;;;97.07;44.10;;;;;;;;;;4895870;29;20470;-62
2022/11/03 14:43:28;;;;;;;92.43;43.40;;;;;;;;;;4895837;29;20056;-61
2022/11/03 14:45:54;;;;;;;92.70;45.20;;;;;;;;;;4896088;29;20032;-62
2022/11/03 14:48:20;;;;;;;91.93;42.25;;;;;;;;;;4895955;29;20024;-62
2022/11/03 14:50:46;;;;;;;89.50;42.53;;;;;;;;;;4895737;29;20075;-62
2022/11/03 14:53:12;;;;;;;92.93;44.08;;;;;;;;;;4895709;29;20041;-69
2022/11/03 14:55:38;;;;;;;93.93;43.40;;;;;;;;;;4895244;29;20029;-61
2022/11/03 14:58:04;;;;;;;92.43;42.65;;;;;;;;;;4895413;29;20032;-62
2022/11/03 15:00:31;;;;;;;93.07;43.35;;;;;;;;;;4895690;29;20033;-70
2022/11/03 15:02:57;;;;;;;83.93;40.33;;;;;;;;;;4896053;29;20507;-62
2022/11/03 15:08:08;;;;;;;85.05;40.05;;;;;;;;;;4895055;29;20504;-60
2022/11/03 15:10:34;;;;;;;84.53;41.33;;;;;;;;;;4895558;29;20079;-63
2022/11/03 15:13:00;;;;;;;85.43;39.90;;;;;;;;;;4895346;29;20036;-62
2022/11/03 15:15:26;;;;;;;85.47;39.90;;;;;;;;;;4895764;29;20033;-64
2022/11/03 15:17:52;;;;;;;80.18;38.42;;;;;;;;;;4894832;29;20029;-63
2022/11/03 15:20:18;;;;;;;87.32;39.65;;;;;;;;;;4894186;29;20115;-61
2022/11/03 15:22:44;;;;;;;87.35;39.72;;;;;;;;;;4893248;29;20429;-61
2022/11/03 15:25:11;;;;;;;84.90;38.88;;;;;;;;;;4894537;29;20028;-61
2022/11/03 15:27:37;;;;;;;86.32;40.15;;;;;;;;;;4893799;29;20035;-61
2022/11/03 15:30:06;;;;;;;87.13;40.03;;;;;;;;;;4894005;29;20036;-61
2022/11/03 15:32:32;;;;;;;92.18;43.42;;;;;;;;;;4894078;29;20148;-66
2022/11/03 15:34:58;;;;;;;92.88;42.78;;;;;;;;;;4894214;29;20049;-67
2022/11/03 15:37:24;;;;;;;99.50;46.08;;;;;;;;;;4891499;29;20033;-63
2022/11/03 15:39:50;;;;;;;101.20;45.78;;;;;;;;;;4894740;29;20121;-66
2022/11/03 15:42:18;;;;;;;96.78;45.78;;;;;;;;;;4906754;29;20088;-68
2022/11/03 15:44:44;;;;;;;95.68;47.13;;;;;;;;;;4894398;29;20052;-63
2022/11/03 15:47:10;;;;;;;102.70;46.10;;;;;;;;;;4894202;29;20033;-62
2022/11/03 15:49:36;;;;;;;98.50;46.65;;;;;;;;;;4894130;29;20025;-64
2022/11/03 15:52:02;;;;;;;107.03;49.58;;;;;;;;;;4895742;29;20039;-65
2022/11/03 15:54:28;;;;;;;105.20;48.60;;;;;;;;;;4892777;29;20135;-62
2022/11/03 15:56:54;;;;;;;108.80;50.35;;;;;;;;;;4895533;29;20026;-63
2022/11/03 15:59:20;;;;;;;114.63;51.92;;;;;;;;;;4893853;29;20545;-61
2022/11/03 16:01:46;;;;;;;109.35;51.75;;;;;;;;;;4893212;29;20041;-62
2022/11/03 16:04:15;;;;;;;118.88;54.88;;;;;;;;;;4893871;29;20033;-62
2022/11/03 16:06:41;;;;;;;119.68;55.17;;;;;;;;;;4896737;29;20425;-65
2022/11/03 16:09:07;;;;;;;116.07;56.22;;;;;;;;;;4895985;29;20049;-63
2022/11/03 16:11:33;;;;;;;126.53;61.47;;;;;;;;;;4898825;29;20044;-67
2022/11/03 16:14:00;;;;;;;123.80;60.47;;;;;;;;;;4897909;29;20037;-65
2022/11/03 16:16:26;;;;;;;132.02;64.63;;;;;;;;;;4895340;29;20516;-65
2022/11/03 16:18:52;;;;;;;143.82;68.80;;;;;;;;;;4898319;29;20060;-66
2022/11/03 16:21:18;;;;;;;138.23;69.30;;;;;;;;;;4898285;29;20029;-64
2022/11/03 16:23:44;;;;;;;144.93;70.50;;;;;;;;;;4898325;29;20031;-64
2022/11/03 16:26:10;;;;;;;150.95;72.35;;;;;;;;;;4897986;29;20066;-62
2022/11/03 16:28:36;;;;;;;167.25;78.68;;;;;;;;;;4898121;29;20028;-63
2022/11/03 16:31:02;;;;;;;177.57;84.50;;;;;;;;;;4898069;29;20156;-64
2022/11/03 16:33:28;;;;;;;186.32;87.95;;;;;;;;;;4897972;29;20154;-64
2022/11/03 16:35:54;;;;;;;179.57;84.15;;;;;;;;;;4897685;29;20550;-64
2022/11/03 16:38:20;;;;;;;190.93;92.13;;;;;;;;;;4897690;29;20061;-64
2022/11/03 16:40:46;;;;;;;180.63;87.03;;;;;;;;;;4897940;29;20092;-66
2022/11/03 16:43:12;;;;;;;176.73;83.32;;;;;;;;;;4897843;29;20021;-65
2022/11/03 16:45:38;;;;;;;162.38;80.35;;;;;;;;;;4898270;29;20032;-63
2022/11/03 16:48:05;;;;;;;167.43;79.05;;;;;;;;;;4898244;29;20088;-64
2022/11/03 16:50:32;;;;;;;151.57;73.47;;;;;;;;;;4898067;29;20461;-63
2022/11/03 16:52:58;;;;;;;158.77;76.40;;;;;;;;;;4898219;29;20039;-64
2022/11/03 16:55:24;;;;;;;167.80;80.40;;;;;;;;;;4898173;29;20077;-63
2022/11/03 16:57:50;;;;;;;167.85;82.30;;;;;;;;;;4897928;29;20481;-66
2022/11/03 17:00:17;;;;;;;163.82;80.40;;;;;;;;;;4897156;29;20041;-64
2022/11/03 17:02:43;;;;;;;159.35;78.68;;;;;;;;;;4896985;29;20016;-65
2022/11/03 17:05:10;;;;;;;170.55;83.25;;;;;;;;;;4897632;29;20465;-64
2022/11/03 17:07:36;;;;;;;175.52;86.72;;;;;;;;;;4895914;29;20112;-66
2022/11/03 17:10:03;;;;;;;174.75;88.10;;;;;;;;;;4896586;29;20143;-63
2022/11/03 17:12:29;;;;;;;172.18;84.70;;;;;;;;;;4896298;29;20088;-63
2022/11/03 17:14:55;;;;;;;168.68;81.65;;;;;;;;;;4894576;29;20033;-64
2022/11/03 17:17:21;;;;;;;165.43;80.28;;;;;;;;;;4894060;29;20036;-63
2022/11/03 17:19:47;;;;;;;168.45;82.13;;;;;;;;;;4895593;29;20437;-63
2022/11/03 17:22:13;;;;;;;152.70;77.43;;;;;;;;;;4894727;29;20228;-63
2022/11/03 17:24:39;;;;;;;160.52;79.50;;;;;;;;;;4895177;29;20028;-66
2022/11/03 17:27:20;;;;;;;260.25;95.28;;;;;;;;;;4895847;29;20021;-63
2022/11/03 17:29:52;;;;;;;215.75;89.05;;;;;;;;;;4893814;29;20036;-66
2022/11/03 17:32:25;;;;;;;114.07;52.90;;;;;;;;;;4893579;29;20052;-63
2022/11/03 17:34:55;;;;;;;134.88;61.92;;;;;;;;;;4895606;29;20987;-65
2022/11/03 17:37:21;;;;;;;138.80;65.40;;;;;;;;;;4895076;29;20020;-63
2022/11/03 17:39:48;;;;;;;139.32;60.85;;;;;;;;;;4897312;29;20044;-66
2022/11/03 17:42:20;;;;;;;132.80;64.00;;;;;;;;;;4902206;29;20037;-63
2022/11/03 17:44:46;;;;;;;147.35;68.95;;;;;;;;;;4901394;29;20077;-62
2022/11/03 17:47:14;;;;;;;154.65;72.47;;;;;;;;;;4899636;29;20017;-67
2022/11/03 17:49:40;;;;;;;152.13;71.13;;;;;;;;;;4901989;29;20029;-63
2022/11/03 17:52:29;;;;;;;149.27;67.35;;;;;;;;;;4895889;29;20366;-64
2022/11/03 17:54:59;;;;;;;151.10;70.55;;;;;;;;;;4898068;29;20144;-65
2022/11/03 17:57:26;;;;;;;150.02;70.18;;;;;;;;;;4895153;29;20032;-62
2022/11/03 17:59:53;;;;;;;171.43;79.53;;;;;;;;;;4897989;29;20101;-63
2022/11/03 18:02:21;;;;;;;133.85;62.03;;;;;;;;;;4897617;29;20056;-62
2022/11/03 18:04:47;;;;;;;132.90;60.60;;;;;;;;;;4895761;29;20051;-62
2022/11/03 18:07:16;;;;;;;127.82;58.83;;;;;;;;;;4895737;29;20067;-62
2022/11/03 18:09:42;;;;;;;127.78;60.05;;;;;;;;;;4896511;29;20065;-67
2022/11/03 18:14:53;;;;;;;130.45;58.40;;;;;;;;;;4896433;29;20107;-64
2022/11/03 18:17:19;;;;;;;131.98;59.50;;;;;;;;;;4896594;29;20153;-63
2022/11/03 18:19:45;;;;;;;125.47;58.97;;;;;;;;;;4896559;29;20044;-65
2022/11/03 18:22:11;;;;;;;129.75;57.33;;;;;;;;;;4896388;29;20036;-62
2022/11/03 18:24:37;;;;;;;126.97;58.63;;;;;;;;;;4896658;29;20037;-63
2022/11/03 18:27:09;;;;;;;111.28;53.55;;;;;;;;;;4896209;29;20051;-62
2022/11/03 18:29:35;;;;;;;116.78;56.15;;;;;;;;;;4896108;29;20058;-63
2022/11/03 18:32:02;;;;;;;120.18;54.80;;;;;;;;;;4896355;29;20056;-63
2022/11/03 18:34:28;;;;;;;111.53;48.15;;;;;;;;;;4896244;29;20083;-62
2022/11/03 18:36:54;;;;;;;113.60;49.85;;;;;;;;;;4895866;29;20036;-65
2022/11/03 18:39:25;;;;;;;113.65;52.35;;;;;;;;;;4895636;29;20043;-64
2022/11/03 18:41:51;;;;;;;120.85;54.30;;;;;;;;;;4896137;29;20393;-62
2022/11/03 18:44:19;;;;;;;108.45;50.92;;;;;;;;;;4895591;29;20041;-66
2022/11/03 18:46:46;;;;;;;105.25;49.53;;;;;;;;;;4895760;29;20473;-63
2022/11/03 18:49:12;;;;;;;111.03;51.42;;;;;;;;;;4895658;29;20400;-63
2022/11/03 18:51:39;;;;;;;101.75;48.78;;;;;;;;;;4895740;29;20036;-63
2022/11/03 18:54:05;;;;;;;112.18;50.40;;;;;;;;;;4895768;29;20372;-66
2022/11/03 18:56:31;;;;;;;103.35;49.17;;;;;;;;;;4895588;29;20111;-62
2022/11/03 18:58:57;;;;;;;102.22;46.03;;;;;;;;;;4895414;29;20044;-62
2022/11/03 19:01:25;;;;;;;95.85;42.63;;;;;;;;;;4895776;29;20385;-64
2022/11/03 19:03:55;;;;;;;92.82;42.33;;;;;;;;;;4895562;29;20123;-64
2022/11/03 19:06:21;;;;;;;90.05;40.80;;;;;;;;;;4895986;29;20115;-63
2022/11/03 19:08:48;;;;;;;85.57;40.47;;;;;;;;;;4895402;29;20505;-63
2022/11/03 19:11:14;;;;;;;93.10;41.42;;;;;;;;;;4895559;29;20057;-62
2022/11/03 19:13:44;;;;;;;87.95;40.20;;;;;;;;;;4895471;29;20025;-62
2022/11/03 19:16:13;;;;;;;92.93;41.65;;;;;;;;;;4895949;29;20048;-67
2022/11/03 19:18:39;;;;;;;86.35;40.08;;;;;;;;;;4896033;29;20024;-64
2022/11/03 19:21:11;;;;;;;87.32;39.45;;;;;;;;;;4896103;29;20063;-61
2022/11/03 19:23:37;;;;;;;69.07;30.88;;;;;;;;;;4895690;29;20053;-62
2022/11/03 19:26:04;;;;;;;85.45;39.10;;;;;;;;;;4895505;29;20036;-63
2022/11/03 19:28:33;;;;;;;84.50;37.63;;;;;;;;;;4895423;29;20111;-62
2022/11/03 19:31:00;;;;;;;83.05;36.78;;;;;;;;;;4895144;29;20058;-62
2022/11/03 19:33:28;;;;;;;79.35;36.85;;;;;;;;;;4895487;29;20033;-63
2022/11/03 19:35:56;;;;;;;82.28;36.80;;;;;;;;;;4895420;29;20541;-62